createdAt,value
2019-03-15T00:00:28.162Z,7.25
2019-03-15T00:01:13.514Z,7.1
2019-03-15T00:02:13.540Z,7.15
2019-03-15T00:03:13.554Z,7.12
2019-03-15T00:04:28.234Z,7.15
2019-03-15T00:05:13.584Z,7.15
2019-03-15T00:06:13.598Z,7.15
2019-03-15T00:07:13.607Z,7.2
2019-03-15T00:08:13.629Z,7.2
2019-03-15T00:09:13.641Z,7.16
2019-03-15T00:10:14.243Z,7.12
2019-03-15T00:13:14.800Z,7.15
2019-03-15T00:15:13.735Z,7.16
2019-03-15T00:16:28.411Z,7.16
2019-03-15T00:17:13.781Z,7.27
2019-03-15T00:18:13.783Z,7.2
2019-03-15T00:19:13.795Z,7.13
2019-03-15T00:20:13.815Z,7.07
2019-03-15T00:21:13.827Z,7.12
2019-03-15T00:22:13.840Z,7.13
2019-03-15T00:23:13.875Z,6.98
2019-03-15T00:24:13.880Z,6.95
2019-03-15T00:25:14.032Z,7.03
2019-03-15T00:26:13.906Z,6.98
2019-03-15T00:27:13.923Z,7.09
2019-03-15T00:28:13.941Z,7.03
2019-03-15T00:29:13.955Z,6.98
2019-03-15T00:30:29.661Z,6.97
2019-03-15T00:31:13.995Z,6.98
2019-03-15T00:32:28.662Z,6.99
2019-03-15T00:33:28.676Z,6.99
2019-03-15T00:34:14.039Z,7.06
2019-03-15T00:35:14.545Z,6.95
2019-03-15T00:36:28.732Z,6.94
2019-03-15T00:37:14.077Z,6.92
2019-03-15T00:38:14.094Z,7.07
2019-03-15T00:39:14.104Z,6.92
2019-03-15T00:40:14.126Z,6.95
2019-03-15T00:41:14.145Z,6.97
2019-03-15T00:42:14.152Z,6.99
2019-03-15T00:43:14.167Z,6.98
2019-03-15T00:44:14.189Z,6.97
2019-03-15T00:45:14.201Z,6.97
2019-03-15T00:46:14.216Z,6.99
2019-03-15T00:47:14.238Z,7.03
2019-03-15T00:48:29.027Z,6.95
2019-03-15T00:49:14.262Z,6.98
2019-03-15T00:50:15.194Z,6.95
2019-03-15T00:51:14.295Z,6.99
2019-03-15T00:52:28.978Z,6.95
2019-03-15T00:53:14.327Z,6.98
2019-03-15T00:54:14.338Z,7.02
2019-03-15T00:55:14.358Z,7.06
2019-03-15T00:56:14.373Z,7.07
2019-03-15T00:57:14.388Z,7.03
2019-03-15T00:58:14.404Z,7.03
2019-03-15T00:59:14.418Z,6.97
2019-03-15T01:00:14.433Z,6.98
2019-03-15T01:01:14.449Z,7.02
2019-03-15T01:02:14.467Z,6.98
2019-03-15T01:03:14.480Z,6.97
2019-03-15T01:04:14.562Z,6.98
2019-03-15T01:05:14.521Z,6.98
2019-03-15T01:06:14.612Z,7.02
2019-03-15T01:07:14.542Z,6.95
2019-03-15T01:08:29.227Z,7.02
2019-03-15T01:09:14.657Z,7.05
2019-03-15T01:10:14.687Z,6.91
2019-03-15T01:11:14.611Z,7.1
2019-03-15T01:13:14.637Z,7.02
2019-03-15T01:14:29.353Z,6.98
2019-03-15T01:15:14.669Z,6.99
2019-03-15T01:16:14.692Z,6.97
2019-03-15T01:17:14.702Z,6.91
2019-03-15T01:18:14.727Z,6.92
2019-03-15T01:19:15.434Z,6.95
2019-03-15T01:20:14.496Z,6.95
2019-03-15T01:21:14.764Z,7.02
2019-03-15T01:22:14.776Z,7.06
2019-03-15T01:23:14.791Z,7.03
2019-03-15T01:24:29.470Z,6.97
2019-03-15T01:25:14.823Z,6.98
2019-03-15T01:26:14.859Z,7.06
2019-03-15T01:27:14.852Z,6.98
2019-03-15T01:28:14.869Z,7.03
2019-03-15T01:29:14.926Z,7.05
2019-03-15T01:30:14.915Z,7.13
2019-03-15T01:31:14.916Z,7.13
2019-03-15T01:32:14.932Z,7.09
2019-03-15T01:33:14.954Z,7.05
2019-03-15T01:34:15.167Z,7.15
2019-03-15T01:35:14.979Z,7.1
2019-03-15T01:36:14.996Z,7.09
2019-03-15T01:37:15.089Z,7.07
2019-03-15T01:38:15.027Z,7.09
2019-03-15T01:39:29.707Z,7.06
2019-03-15T01:40:15.057Z,7.12
2019-03-15T01:41:15.073Z,7.09
2019-03-15T01:42:15.087Z,7.2
2019-03-15T01:43:15.725Z,7.13
2019-03-15T01:44:15.121Z,7.13
2019-03-15T01:46:15.149Z,7.12
2019-03-15T01:47:15.169Z,7.12
2019-03-15T01:48:15.223Z,7.21
2019-03-15T01:49:15.201Z,7.1
2019-03-15T01:50:15.225Z,7.16
2019-03-15T01:51:29.893Z,7.1
2019-03-15T01:52:29.908Z,7.1
2019-03-15T01:53:15.260Z,7.15
2019-03-15T01:54:16.064Z,7.12
2019-03-15T01:55:15.295Z,7.07
2019-03-15T01:56:15.315Z,7.13
2019-03-15T01:57:15.322Z,7.1
2019-03-15T01:58:15.345Z,7.27
2019-03-15T01:59:15.355Z,7.12
2019-03-15T02:00:15.845Z,7.15
2019-03-15T02:01:15.391Z,7.12
2019-03-15T02:02:15.403Z,7.16
2019-03-15T02:03:16.172Z,7.24
2019-03-15T02:04:30.099Z,7.13
2019-03-15T02:05:15.469Z,7.12
2019-03-15T02:06:30.129Z,7.24
2019-03-15T02:07:15.486Z,7.25
2019-03-15T02:08:15.505Z,7.3
2019-03-15T02:09:15.520Z,7.17
2019-03-15T02:10:15.862Z,7.17
2019-03-15T02:11:30.207Z,7.13
2019-03-15T02:12:15.573Z,7.15
2019-03-15T02:13:15.584Z,7.15
2019-03-15T02:14:15.594Z,7.16
2019-03-15T02:15:15.607Z,7.13
2019-03-15T02:18:30.321Z,7.15
2019-03-15T02:19:15.674Z,7.16
2019-03-15T02:20:30.398Z,7.12
2019-03-15T02:21:15.698Z,7.23
2019-03-15T02:22:30.378Z,7.13
2019-03-15T02:23:15.735Z,7.15
2019-03-15T02:24:30.408Z,7.13
2019-03-15T02:25:30.429Z,7.17
2019-03-15T02:26:15.778Z,7.2
2019-03-15T02:27:30.456Z,7.15
2019-03-15T02:28:15.812Z,7.16
2019-03-15T02:29:15.822Z,7.16
2019-03-15T02:30:15.952Z,7.13
2019-03-15T02:31:15.866Z,7.09
2019-03-15T02:32:15.914Z,7.12
2019-03-15T02:33:15.901Z,7.17
2019-03-15T02:34:15.907Z,7.16
2019-03-15T02:35:15.923Z,7.17
2019-03-15T02:36:16.651Z,7.12
2019-03-15T02:37:30.617Z,7.15
2019-03-15T02:38:16.003Z,7.16
2019-03-15T02:39:15.991Z,7.1
2019-03-15T02:40:16.024Z,7.09
2019-03-15T02:41:16.018Z,7.12
2019-03-15T02:42:16.043Z,7.12
2019-03-15T02:43:30.708Z,7.15
2019-03-15T02:45:16.078Z,7.27
2019-03-15T02:46:16.102Z,7.23
2019-03-15T02:47:16.108Z,7.16
2019-03-15T02:48:30.793Z,7.27
2019-03-15T02:49:16.144Z,7.24
2019-03-15T02:50:16.165Z,7.25
2019-03-15T02:51:16.173Z,7.16
2019-03-15T02:52:16.191Z,7.1
2019-03-15T02:53:16.216Z,7.17
2019-03-15T02:54:16.255Z,7.2
2019-03-15T02:56:17.484Z,7.17
2019-03-15T02:58:16.318Z,7.17
2019-03-15T02:59:30.958Z,7.09
2019-03-15T03:00:30.985Z,7.17
2019-03-15T03:01:16.337Z,7.16
2019-03-15T03:02:16.357Z,7.16
2019-03-15T03:03:16.361Z,7.17
2019-03-15T03:04:16.836Z,7.13
2019-03-15T03:06:16.426Z,7.25
2019-03-15T03:07:31.086Z,7.17
2019-03-15T03:08:16.961Z,7.1
2019-03-15T03:10:31.143Z,7.09
2019-03-15T03:11:31.153Z,7.12
2019-03-15T03:12:17.432Z,7.15
2019-03-15T03:13:16.520Z,7.12
2019-03-15T03:14:31.229Z,7.13
2019-03-15T03:15:16.624Z,7.07
2019-03-15T03:16:17.817Z,7.12
2019-03-15T03:17:17.975Z,7.1
2019-03-15T03:18:16.606Z,7.09
2019-03-15T03:19:16.615Z,7.12
2019-03-15T03:20:16.978Z,7.13
2019-03-15T03:21:17.695Z,7.13
2019-03-15T03:22:31.324Z,7.21
2019-03-15T03:23:31.339Z,7.15
2019-03-15T03:24:16.699Z,7.13
2019-03-15T03:25:17.401Z,7.2
2019-03-15T03:27:17.076Z,7.13
2019-03-15T03:28:16.762Z,7.13
2019-03-15T03:29:16.783Z,7.1
2019-03-15T03:30:20.101Z,7.12
2019-03-15T03:31:18.361Z,7.16
2019-03-15T03:32:18.680Z,7.16
2019-03-15T03:33:17.682Z,7.1
2019-03-15T03:34:32.444Z,7.17
2019-03-15T03:35:17.425Z,7.12
2019-03-15T03:36:16.888Z,7.2
2019-03-15T03:37:16.905Z,7.12
2019-03-15T03:38:17.442Z,7.12
2019-03-15T03:39:31.639Z,7.17
2019-03-15T03:40:19.988Z,7.06
2019-03-15T03:41:16.969Z,7.06
2019-03-15T03:42:16.982Z,7.05
2019-03-15T03:44:17.004Z,7.09
2019-03-15T03:45:17.040Z,7.06
2019-03-15T03:46:31.695Z,6.95
2019-03-15T03:47:17.082Z,6.97
2019-03-15T03:48:20.482Z,7.07
2019-03-15T03:49:17.084Z,6.99
2019-03-15T03:50:17.095Z,6.95
2019-03-15T03:51:17.116Z,6.97
2019-03-15T03:52:17.130Z,7.05
2019-03-15T03:53:17.146Z,7.07
2019-03-15T03:54:17.157Z,6.97
2019-03-15T03:55:31.839Z,7.09
2019-03-15T03:56:17.512Z,7.1
2019-03-15T03:57:17.205Z,7.12
2019-03-15T03:58:17.218Z,6.94
2019-03-15T03:59:17.237Z,6.98
2019-03-15T04:00:17.279Z,6.95
2019-03-15T04:01:17.271Z,6.98
2019-03-15T04:03:17.299Z,7.02
2019-03-15T04:04:17.312Z,7.06
2019-03-15T04:06:17.342Z,6.95
2019-03-15T04:07:17.363Z,7.09
2019-03-15T04:08:17.375Z,7.12
2019-03-15T04:09:17.537Z,7.05
2019-03-15T04:10:32.106Z,6.97
2019-03-15T04:11:17.426Z,7.09
2019-03-15T04:12:17.439Z,7.13
2019-03-15T04:13:17.458Z,6.97
2019-03-15T04:14:17.472Z,7.07
2019-03-15T04:15:17.488Z,7.1
2019-03-15T04:16:17.499Z,7.09
2019-03-15T04:17:17.602Z,7.13
2019-03-15T04:18:32.195Z,7.07
2019-03-15T04:19:32.221Z,7.12
2019-03-15T04:20:17.668Z,7.13
2019-03-15T04:21:17.580Z,7.17
2019-03-15T04:22:17.593Z,7.12
2019-03-15T04:23:17.854Z,7.15
2019-03-15T04:24:32.295Z,7.13
2019-03-15T04:25:17.644Z,7.13
2019-03-15T04:26:17.658Z,7.16
2019-03-15T04:27:17.674Z,7.15
2019-03-15T04:28:17.687Z,7.16
2019-03-15T04:29:17.705Z,7.12
2019-03-15T04:30:17.718Z,7.06
2019-03-15T04:31:17.749Z,7.13
2019-03-15T04:32:17.752Z,7.1
2019-03-15T04:33:17.767Z,7.09
2019-03-15T04:34:32.445Z,7.02
2019-03-15T04:35:17.837Z,7.07
2019-03-15T04:36:17.813Z,6.99
2019-03-15T04:37:17.830Z,7.06
2019-03-15T04:39:18.937Z,6.94
2019-03-15T04:40:17.961Z,7.09
2019-03-15T04:41:17.891Z,7.06
2019-03-15T04:44:18.034Z,7.06
2019-03-15T04:45:17.956Z,7.02
2019-03-15T04:46:17.982Z,7.1
2019-03-15T04:47:17.989Z,7.06
2019-03-15T04:48:18.000Z,7.07
2019-03-15T04:49:32.679Z,7.09
2019-03-15T04:50:18.035Z,7.15
2019-03-15T04:51:18.187Z,7.1
2019-03-15T04:52:18.064Z,7.13
2019-03-15T04:53:18.079Z,7.15
2019-03-15T04:54:17.846Z,7.16
2019-03-15T04:55:18.194Z,7.15
2019-03-15T04:56:18.325Z,7.12
2019-03-15T04:57:18.145Z,7.1
2019-03-15T04:58:18.161Z,7.2
2019-03-15T05:00:18.190Z,7.24
2019-03-15T05:01:18.210Z,7.28
2019-03-15T05:02:32.882Z,7.25
2019-03-15T05:03:18.246Z,7.27
2019-03-15T05:04:18.250Z,7.13
2019-03-15T05:05:18.277Z,7.27
2019-03-15T05:06:18.283Z,7.2
2019-03-15T05:07:18.299Z,7.25
2019-03-15T05:08:18.314Z,7.21
2019-03-15T05:10:18.426Z,7.17
2019-03-15T05:11:18.363Z,7.15
2019-03-15T05:12:18.374Z,7.07
2019-03-15T05:13:18.391Z,7.09
2019-03-15T05:14:18.412Z,7.23
2019-03-15T05:15:18.426Z,7.13
2019-03-15T05:16:18.437Z,7.25
2019-03-15T05:17:18.454Z,7.21
2019-03-15T05:18:33.133Z,7.12
2019-03-15T05:19:18.486Z,7.16
2019-03-15T05:20:20.954Z,7.15
2019-03-15T05:21:33.181Z,7.28
2019-03-15T05:22:18.533Z,7.21
2019-03-15T05:23:18.550Z,7.16
2019-03-15T05:24:18.562Z,7.16
2019-03-15T05:25:18.579Z,7.13
2019-03-15T05:26:18.595Z,7.1
2019-03-15T05:27:18.622Z,7.1
2019-03-15T05:29:18.642Z,7.12
2019-03-15T05:30:18.661Z,7.17
2019-03-15T05:31:18.673Z,7.27
2019-03-15T05:32:18.692Z,7.15
2019-03-15T05:33:33.367Z,7.17
2019-03-15T05:34:18.474Z,7.16
2019-03-15T05:35:18.741Z,7.13
2019-03-15T05:36:18.756Z,7.16
2019-03-15T05:37:33.430Z,7.09
2019-03-15T05:38:18.782Z,7.15
2019-03-15T05:39:18.896Z,7.13
2019-03-15T05:40:18.813Z,7.12
2019-03-15T05:41:18.831Z,7.12
2019-03-15T05:42:18.858Z,7.17
2019-03-15T05:43:18.862Z,7.25
2019-03-15T05:44:18.881Z,7.24
2019-03-15T05:45:18.894Z,7.23
2019-03-15T05:46:18.906Z,7.25
2019-03-15T05:47:18.923Z,7.25
2019-03-15T05:48:18.945Z,7.27
2019-03-15T05:49:33.618Z,7.25
2019-03-15T05:50:18.971Z,7.21
2019-03-15T05:51:18.988Z,7.27
2019-03-15T05:52:19.004Z,7.21
2019-03-15T05:53:33.680Z,7.24
2019-03-15T05:54:19.039Z,7.27
2019-03-15T05:56:33.736Z,7.1
2019-03-15T05:57:19.095Z,7.16
2019-03-15T05:58:21.727Z,7.2
2019-03-15T05:59:18.881Z,7.13
2019-03-15T06:00:19.131Z,7.16
2019-03-15T06:01:19.141Z,7.09
2019-03-15T06:02:19.177Z,7.15
2019-03-15T06:03:19.185Z,7.1
2019-03-15T06:05:19.204Z,7.09
2019-03-15T06:06:19.361Z,6.95
2019-03-15T06:07:19.239Z,6.92
2019-03-15T06:08:19.255Z,7.09
2019-03-15T06:09:33.930Z,7.09
2019-03-15T06:10:19.293Z,7.1
2019-03-15T06:11:19.310Z,7.07
2019-03-15T06:12:19.316Z,7.12
2019-03-15T06:13:19.339Z,7.2
2019-03-15T06:14:19.408Z,7.06
2019-03-15T06:15:19.365Z,7.13
2019-03-15T06:16:19.407Z,7.16
2019-03-15T06:19:19.179Z,7.12
2019-03-15T06:21:34.119Z,7.27
2019-03-15T06:22:19.474Z,7.2
2019-03-15T06:23:21.852Z,7.27
2019-03-15T06:24:34.167Z,7.27
2019-03-15T06:25:19.554Z,7.21
2019-03-15T06:27:19.561Z,7.35
2019-03-15T06:29:19.583Z,7.42
2019-03-15T06:30:19.598Z,7.34
2019-03-15T06:31:19.619Z,7.42
2019-03-15T06:32:19.671Z,7.4
2019-03-15T06:33:19.741Z,7.4
2019-03-15T06:35:19.678Z,7.46
2019-03-15T06:36:19.703Z,7.4
2019-03-15T06:37:19.719Z,7.42
2019-03-15T06:38:19.734Z,7.4
2019-03-15T06:39:19.741Z,7.45
2019-03-15T06:40:19.757Z,7.45
2019-03-15T06:41:19.773Z,7.48
2019-03-15T06:42:19.798Z,7.46
2019-03-15T06:44:19.821Z,7.55
2019-03-15T06:46:19.860Z,7.58
2019-03-15T06:47:19.870Z,7.5
2019-03-15T06:48:19.887Z,7.52
2019-03-15T06:49:21.556Z,7.57
2019-03-15T06:50:19.922Z,7.52
2019-03-15T06:51:19.936Z,7.69
2019-03-15T06:52:34.614Z,7.53
2019-03-15T06:53:34.628Z,7.61
2019-03-15T06:54:19.981Z,7.63
2019-03-15T06:55:20.006Z,7.68
2019-03-15T06:56:34.679Z,7.75
2019-03-15T06:57:20.059Z,7.8
2019-03-15T06:58:20.051Z,7.8
2019-03-15T06:59:20.064Z,7.68
2019-03-15T07:00:20.096Z,7.63
2019-03-15T07:01:20.100Z,7.71
2019-03-15T07:02:20.119Z,7.75
2019-03-15T07:03:20.135Z,7.69
2019-03-15T07:04:20.152Z,7.72
2019-03-15T07:05:20.627Z,7.61
2019-03-15T07:07:20.198Z,7.8
2019-03-15T07:08:34.872Z,7.64
2019-03-15T07:09:20.231Z,7.75
2019-03-15T07:10:20.265Z,7.63
2019-03-15T07:11:20.258Z,7.63
2019-03-15T07:12:34.938Z,7.63
2019-03-15T07:13:20.299Z,7.61
2019-03-15T07:14:20.797Z,7.64
2019-03-15T07:15:20.323Z,7.64
2019-03-15T07:16:20.351Z,7.71
2019-03-15T07:17:20.356Z,7.67
2019-03-15T07:18:23.387Z,7.6
2019-03-15T07:19:33.071Z,7.67
2019-03-15T07:20:20.803Z,7.79
2019-03-15T07:21:20.425Z,7.82
2019-03-15T07:22:35.102Z,7.8
2019-03-15T07:23:20.489Z,7.75
2019-03-15T07:24:30.270Z,7.85
2019-03-15T07:25:20.500Z,7.9
2019-03-15T07:26:20.511Z,7.9
2019-03-15T07:27:20.526Z,7.9
2019-03-15T07:28:35.201Z,8.02
2019-03-15T07:29:23.681Z,7.93
2019-03-15T07:30:20.693Z,7.97
2019-03-15T07:31:20.602Z,7.98
2019-03-15T07:32:20.607Z,8
2019-03-15T07:33:20.637Z,8.07
2019-03-15T07:34:20.852Z,8.11
2019-03-15T07:36:20.672Z,8.26
2019-03-15T07:38:20.705Z,8.43
2019-03-15T07:39:20.719Z,8.47
2019-03-15T07:40:35.392Z,8.47
2019-03-15T07:41:20.746Z,8.48
2019-03-15T07:42:20.764Z,8.61
2019-03-15T07:43:22.589Z,8.59
2019-03-15T07:44:35.465Z,8.59
2019-03-15T07:45:20.817Z,8.71
2019-03-15T07:46:20.845Z,8.81
2019-03-15T07:48:29.417Z,8.91
2019-03-15T07:49:20.883Z,8.84
2019-03-15T07:50:20.900Z,8.86
2019-03-15T07:51:20.914Z,8.89
2019-03-15T07:52:20.936Z,8.87
2019-03-15T07:55:20.982Z,8.94
2019-03-15T07:56:35.664Z,8.89
2019-03-15T07:57:21.025Z,8.89
2019-03-15T07:58:21.049Z,9.04
2019-03-15T07:59:35.714Z,9.08
2019-03-15T08:00:21.078Z,9.08
2019-03-15T08:01:21.123Z,9.13
2019-03-15T08:02:21.103Z,9.05
2019-03-15T08:03:21.120Z,9.05
2019-03-15T08:04:22.376Z,9.15
2019-03-15T08:05:21.218Z,9.23
2019-03-15T08:07:44.669Z,9.28
2019-03-15T08:08:21.221Z,9.26
2019-03-15T08:09:21.231Z,9.42
2019-03-15T08:10:21.298Z,9.23
2019-03-15T08:11:21.039Z,9.13
2019-03-15T08:12:38.528Z,9.1
2019-03-15T08:13:21.397Z,9.14
2019-03-15T08:14:21.333Z,9.14
2019-03-15T08:15:21.332Z,9.15
2019-03-15T08:16:21.344Z,9.26
2019-03-15T08:17:21.363Z,9.14
2019-03-15T08:18:21.378Z,9.01
2019-03-15T08:21:22.678Z,9.21
2019-03-15T08:22:21.555Z,9.28
2019-03-15T08:23:36.133Z,9.21
2019-03-15T08:24:21.508Z,9.26
2019-03-15T08:25:21.502Z,9.43
2019-03-15T08:26:36.183Z,9.33
2019-03-15T08:27:21.571Z,9.39
2019-03-15T08:28:21.575Z,9.36
2019-03-15T08:29:21.588Z,9.47
2019-03-15T08:30:21.601Z,9.61
2019-03-15T08:31:36.033Z,9.68
2019-03-15T08:32:21.626Z,9.71
2019-03-15T08:33:21.646Z,9.81
2019-03-15T08:34:21.680Z,9.87
2019-03-15T08:36:25.197Z,9.94
2019-03-15T08:37:21.722Z,10.02
2019-03-15T08:38:21.737Z,10.2
2019-03-15T08:39:21.756Z,10.34
2019-03-15T08:40:21.527Z,10.63
2019-03-15T08:42:36.472Z,10.33
2019-03-15T08:43:21.855Z,10.22
2019-03-15T08:44:21.845Z,10.27
2019-03-15T08:45:21.902Z,10.18
2019-03-15T08:46:21.904Z,10.15
2019-03-15T08:47:36.566Z,10.2
2019-03-15T08:48:21.937Z,10.25
2019-03-15T08:49:21.941Z,10.27
2019-03-15T08:50:24.490Z,10.25
2019-03-15T08:51:21.981Z,10.15
2019-03-15T08:52:21.996Z,10.07
2019-03-15T08:54:22.034Z,9.79
2019-03-15T08:55:22.062Z,9.69
2019-03-15T08:57:22.107Z,9.57
2019-03-15T08:58:26.713Z,9.57
2019-03-15T08:59:22.124Z,9.46
2019-03-15T09:00:22.360Z,9.54
2019-03-15T09:01:23.847Z,9.51
2019-03-15T09:02:22.178Z,9.51
2019-03-15T09:03:37.175Z,9.56
2019-03-15T09:04:24.136Z,9.56
2019-03-15T09:05:22.246Z,9.6
2019-03-15T09:06:22.281Z,9.71
2019-03-15T09:07:22.272Z,9.68
2019-03-15T09:08:22.286Z,9.86
2019-03-15T09:09:22.311Z,9.79
2019-03-15T09:10:28.280Z,9.79
2019-03-15T09:11:37.008Z,9.74
2019-03-15T09:12:22.368Z,9.79
2019-03-15T09:13:22.384Z,9.86
2019-03-15T09:14:22.397Z,9.69
2019-03-15T09:15:22.419Z,9.78
2019-03-15T09:16:37.093Z,9.86
2019-03-15T09:17:24.918Z,9.94
2019-03-15T09:18:22.473Z,10.15
2019-03-15T09:19:37.154Z,10.18
2019-03-15T09:20:22.502Z,10.29
2019-03-15T09:21:22.521Z,10.26
2019-03-15T09:22:22.558Z,10.32
2019-03-15T09:23:22.583Z,10.4
2019-03-15T09:24:22.575Z,10.42
2019-03-15T09:25:25.424Z,10.55
2019-03-15T09:26:22.610Z,10.51
2019-03-15T09:27:22.630Z,10.47
2019-03-15T09:29:22.675Z,10.55
2019-03-15T09:30:28.691Z,10.76
2019-03-15T09:31:22.710Z,10.78
2019-03-15T09:32:22.494Z,10.71
2019-03-15T09:33:22.741Z,10.91
2019-03-15T09:34:37.424Z,10.94
2019-03-15T09:35:22.828Z,10.88
2019-03-15T09:36:22.802Z,10.92
2019-03-15T09:37:22.814Z,10.99
2019-03-15T09:38:22.833Z,10.82
2019-03-15T09:39:22.861Z,10.92
2019-03-15T09:40:25.571Z,10.76
2019-03-15T09:41:42.311Z,10.79
2019-03-15T09:44:22.950Z,10.89
2019-03-15T09:45:22.726Z,10.84
2019-03-15T09:46:22.985Z,10.68
2019-03-15T09:47:23.006Z,10.74
2019-03-15T09:48:23.036Z,10.74
2019-03-15T09:49:23.044Z,10.68
2019-03-15T09:50:52.844Z,10.51
2019-03-15T09:51:23.072Z,10.44
2019-03-15T09:52:23.093Z,10.36
2019-03-15T09:53:23.111Z,10.47
2019-03-15T09:54:26.048Z,10.48
2019-03-15T09:55:37.045Z,10.64
2019-03-15T09:56:23.188Z,10.61
2019-03-15T09:57:23.184Z,10.47
2019-03-15T09:58:23.208Z,10.34
2019-03-15T09:59:24.363Z,10.36
2019-03-15T10:00:23.254Z,10.33
2019-03-15T10:01:39.437Z,10.34
2019-03-15T10:02:35.187Z,10.38
2019-03-15T10:03:27.365Z,10.36
2019-03-15T10:04:23.384Z,10.29
2019-03-15T10:05:23.345Z,10.36
2019-03-15T10:06:38.017Z,10.4
2019-03-15T10:07:37.249Z,10.32
2019-03-15T10:08:26.050Z,10.32
2019-03-15T10:09:23.430Z,10.34
2019-03-15T10:10:23.838Z,10.41
2019-03-15T10:11:23.448Z,10.51
2019-03-15T10:12:23.479Z,10.56
2019-03-15T10:13:23.479Z,10.74
2019-03-15T10:14:23.680Z,10.88
2019-03-15T10:15:26.125Z,10.89
2019-03-15T10:16:23.559Z,10.86
2019-03-15T10:17:25.590Z,10.89
2019-03-15T10:18:23.577Z,10.94
2019-03-15T10:19:23.590Z,11.02
2019-03-15T10:20:23.367Z,11.09
2019-03-15T10:21:23.639Z,11.09
2019-03-15T10:22:38.309Z,11.15
2019-03-15T10:23:23.665Z,11.32
2019-03-15T10:24:23.682Z,11.36
2019-03-15T10:25:23.702Z,11.42
2019-03-15T10:26:23.723Z,11.4
2019-03-15T10:27:23.741Z,11.43
2019-03-15T10:28:23.759Z,11.35
2019-03-15T10:29:24.610Z,11.29
2019-03-15T10:30:23.899Z,11.52
2019-03-15T10:31:26.546Z,11.42
2019-03-15T10:32:23.839Z,11.54
2019-03-15T10:33:49.731Z,11.67
2019-03-15T10:34:23.872Z,11.67
2019-03-15T10:35:23.892Z,11.65
2019-03-15T10:36:23.912Z,11.75
2019-03-15T10:37:23.974Z,11.7
2019-03-15T10:38:38.611Z,11.42
2019-03-15T10:39:23.970Z,11.39
2019-03-15T10:41:24.008Z,11.35
2019-03-15T10:42:24.025Z,11.33
2019-03-15T10:43:24.053Z,11.36
2019-03-15T10:44:24.070Z,11.22
2019-03-15T10:45:23.837Z,11.32
2019-03-15T10:46:24.103Z,11.36
2019-03-15T10:48:30.121Z,11.42
2019-03-15T10:49:24.192Z,11.69
2019-03-15T10:50:24.175Z,11.69
2019-03-15T10:51:38.860Z,11.7
2019-03-15T10:52:38.878Z,11.7
2019-03-15T10:53:24.234Z,11.65
2019-03-15T10:55:25.696Z,11.58
2019-03-15T10:56:24.342Z,11.6
2019-03-15T10:57:24.314Z,11.58
2019-03-15T10:58:24.329Z,11.55
2019-03-15T10:59:24.365Z,11.65
2019-03-15T11:00:24.368Z,11.57
2019-03-15T11:01:24.385Z,11.52
2019-03-15T11:02:24.408Z,11.52
2019-03-15T11:03:24.426Z,11.49
2019-03-15T11:04:24.446Z,11.37
2019-03-15T11:05:39.128Z,11.33
2019-03-15T11:06:24.481Z,11.33
2019-03-15T11:07:24.519Z,11.22
2019-03-15T11:08:26.754Z,11.32
2019-03-15T11:09:39.213Z,11.33
2019-03-15T11:10:24.562Z,11.29
2019-03-15T11:11:24.578Z,11.39
2019-03-15T11:12:24.611Z,11.28
2019-03-15T11:13:24.617Z,11.47
2019-03-15T11:14:24.741Z,11.49
2019-03-15T11:15:39.323Z,11.52
2019-03-15T11:16:24.679Z,11.46
2019-03-15T11:17:39.360Z,11.42
2019-03-15T11:18:39.377Z,11.44
2019-03-15T11:19:39.395Z,11.58
2019-03-15T11:20:24.852Z,11.72
2019-03-15T11:21:39.532Z,11.72
2019-03-15T11:22:39.450Z,11.98
2019-03-15T11:23:24.813Z,12.05
2019-03-15T11:24:24.824Z,12.01
2019-03-15T11:25:24.844Z,11.94
2019-03-15T11:26:24.876Z,11.79
2019-03-15T11:27:24.882Z,11.76
2019-03-15T11:28:25.004Z,11.69
2019-03-15T11:29:24.920Z,11.67
2019-03-15T11:30:25.070Z,11.76
2019-03-15T11:32:24.979Z,11.98
2019-03-15T11:33:25.006Z,12.01
2019-03-15T11:34:25.019Z,12.27
2019-03-15T11:35:26.436Z,12.41
2019-03-15T11:36:25.054Z,12.34
2019-03-15T11:37:25.072Z,12.46
2019-03-15T11:38:39.756Z,12.57
2019-03-15T11:39:25.114Z,12.64
2019-03-15T11:40:25.137Z,12.77
2019-03-15T11:41:39.817Z,12.68
2019-03-15T11:42:25.171Z,12.79
2019-03-15T11:44:25.275Z,12.71
2019-03-15T11:45:25.242Z,12.9
2019-03-15T11:46:25.250Z,12.9
2019-03-15T11:47:25.321Z,12.9
2019-03-15T11:48:25.289Z,13
2019-03-15T11:49:28.052Z,13.1
2019-03-15T11:50:25.348Z,13.05
2019-03-15T11:51:25.353Z,13.17
2019-03-15T11:52:25.376Z,13.2
2019-03-15T11:53:25.139Z,13.11
2019-03-15T11:54:25.415Z,12.93
2019-03-15T11:55:25.431Z,12.85
2019-03-15T11:56:31.976Z,12.65
2019-03-15T11:57:40.135Z,12.49
2019-03-15T11:58:25.494Z,12.52
2019-03-15T11:59:25.511Z,12.49
2019-03-15T12:00:25.534Z,12.46
2019-03-15T12:01:40.225Z,12.41
2019-03-15T12:02:25.583Z,12.42
2019-03-15T12:03:25.597Z,12.41
2019-03-15T12:04:25.614Z,12.41
2019-03-15T12:05:25.741Z,12.42
2019-03-15T12:06:25.648Z,12.35
2019-03-15T12:07:25.674Z,12.45
2019-03-15T12:08:25.693Z,12.53
2019-03-15T12:09:41.046Z,12.7
2019-03-15T12:10:25.734Z,12.82
2019-03-15T12:11:25.747Z,12.82
2019-03-15T12:12:26.372Z,12.74
2019-03-15T12:14:25.810Z,12.74
2019-03-15T12:15:25.837Z,12.83
2019-03-15T12:16:25.848Z,12.83
2019-03-15T12:17:25.869Z,12.9
2019-03-15T12:18:25.890Z,13.2
2019-03-15T12:19:25.909Z,13.04
2019-03-15T12:20:25.931Z,13.2
2019-03-15T12:22:25.972Z,13.22
2019-03-15T12:23:25.992Z,12.93
2019-03-15T12:24:26.100Z,12.62
2019-03-15T12:25:40.694Z,12.64
2019-03-15T12:26:26.049Z,12.52
2019-03-15T12:27:26.076Z,12.46
2019-03-15T12:28:40.750Z,12.31
2019-03-15T12:29:40.772Z,12.29
2019-03-15T12:30:26.133Z,12.23
2019-03-15T12:31:26.147Z,12.24
2019-03-15T12:32:28.664Z,12.2
2019-03-15T12:33:26.192Z,12.19
2019-03-15T12:34:26.208Z,12.13
2019-03-15T12:35:26.227Z,12.23
2019-03-15T12:36:26.247Z,12.32
2019-03-15T12:37:26.271Z,12.31
2019-03-15T12:39:40.973Z,12.31
2019-03-15T12:40:40.989Z,12.16
2019-03-15T12:41:29.637Z,11.94
2019-03-15T12:42:26.364Z,11.73
2019-03-15T12:43:26.135Z,11.83
2019-03-15T12:44:41.072Z,11.9
2019-03-15T12:45:26.427Z,11.94
2019-03-15T12:46:26.443Z,11.8
2019-03-15T12:47:26.463Z,11.69
2019-03-15T12:48:26.494Z,11.64
2019-03-15T12:49:28.187Z,11.7
2019-03-15T12:50:26.521Z,11.64
2019-03-15T12:51:36.831Z,11.55
2019-03-15T12:52:47.426Z,11.54
2019-03-15T12:53:26.336Z,11.69
2019-03-15T12:54:26.605Z,11.51
2019-03-15T12:55:41.281Z,11.35
2019-03-15T12:56:26.643Z,11.33
2019-03-15T12:57:26.659Z,11.36
2019-03-15T12:58:26.673Z,11.32
2019-03-15T12:59:26.694Z,11.25
2019-03-15T13:00:26.719Z,11.25
2019-03-15T13:01:26.752Z,11.42
2019-03-15T13:03:26.770Z,11.44
2019-03-15T13:04:26.790Z,11.33
2019-03-15T13:05:26.887Z,11.35
2019-03-15T13:06:26.830Z,11.32
2019-03-15T13:07:26.851Z,11.29
2019-03-15T13:08:26.863Z,11.37
2019-03-15T13:10:26.916Z,11.25
2019-03-15T13:11:26.924Z,11.35
2019-03-15T13:12:26.978Z,11.43
2019-03-15T13:13:26.959Z,11.42
2019-03-15T13:14:26.984Z,11.36
2019-03-15T13:15:26.998Z,11.42
2019-03-15T13:16:41.680Z,11.35
2019-03-15T13:17:27.045Z,11.22
2019-03-15T13:18:27.056Z,11.24
2019-03-15T13:19:27.072Z,11.32
2019-03-15T13:20:27.092Z,11.22
2019-03-15T13:21:27.116Z,11.19
2019-03-15T13:22:27.135Z,11.25
2019-03-15T13:23:27.153Z,11.21
2019-03-15T13:25:27.188Z,11.22
2019-03-15T13:26:28.928Z,11.32
2019-03-15T13:27:27.225Z,11.44
2019-03-15T13:28:27.247Z,11.57
2019-03-15T13:29:27.275Z,11.65
2019-03-15T13:30:27.282Z,11.75
2019-03-15T13:31:27.302Z,11.51
2019-03-15T13:32:41.983Z,11.57
2019-03-15T13:33:27.429Z,11.57
2019-03-15T13:34:27.367Z,11.47
2019-03-15T13:35:27.135Z,11.44
2019-03-15T13:36:27.400Z,11.35
2019-03-15T13:37:27.424Z,11.36
2019-03-15T13:38:27.437Z,11.17
2019-03-15T13:39:27.496Z,11.15
2019-03-15T13:40:27.477Z,11
2019-03-15T13:41:27.553Z,10.86
2019-03-15T13:42:42.176Z,10.89
2019-03-15T13:43:27.531Z,10.82
2019-03-15T13:44:30.893Z,10.89
2019-03-15T13:45:27.573Z,10.71
2019-03-15T13:46:27.591Z,10.67
2019-03-15T13:47:27.608Z,10.6
2019-03-15T13:48:42.287Z,10.6
2019-03-15T13:49:27.648Z,10.56
2019-03-15T13:50:27.663Z,10.66
2019-03-15T13:51:27.710Z,10.63
2019-03-15T13:52:27.711Z,10.64
2019-03-15T13:53:27.718Z,10.45
2019-03-15T13:54:27.736Z,10.63
2019-03-15T13:55:27.768Z,10.63
2019-03-15T13:56:27.794Z,10.64
2019-03-15T13:57:27.798Z,10.6
2019-03-15T13:58:27.813Z,10.55
2019-03-15T13:59:27.832Z,10.4
2019-03-15T14:00:27.861Z,10.4
2019-03-15T14:01:27.875Z,10.29
2019-03-15T14:02:27.888Z,10.33
2019-03-15T14:03:27.906Z,10.4
2019-03-15T14:04:42.586Z,10.33
2019-03-15T14:05:28.024Z,10.33
2019-03-15T14:06:27.962Z,10.2
2019-03-15T14:07:27.976Z,10.05
2019-03-15T14:08:28.097Z,10.15
2019-03-15T14:09:28.017Z,10.05
2019-03-15T14:10:28.033Z,10.05